Time;durP1;ratioP1;P1;durP2;ratioP2;P2;SDS_P1;SDS_P2;PMS_P1;PMS_P2;Temp;Humidity;BMP_temperature;BMP_pressure;BME280_temperature;BME280_humidity;BME280_pressure;Samples;Min_cycle;Max_cycle;Signal;HPM_P1;HPM_P2
2021/07/20 00:01:39;;;;;;;10.30;4.68;;;;;;;;;;6192290;23;20315;-87
2021/07/20 00:04:46;;;;;;;9.65;4.63;;;;;;;;;;6191790;23;20172;-86
2021/07/20 00:07:51;;;;;;;12.23;4.78;;;;;;;;;;6193672;23;20175;-86
2021/07/20 00:10:57;;;;;;;12.95;4.80;;;;;;;;;;6192987;23;20175;-86
2021/07/20 00:14:02;;;;;;;10.10;4.68;;;;;;;;;;6192869;23;20219;-87
2021/07/20 00:17:08;;;;;;;14.27;4.63;;;;;;;;;;6191406;23;20579;-87
2021/07/20 00:20:15;;;;;;;12.13;5.28;;;;;;;;;;6191786;23;20284;-86
2021/07/20 00:23:21;;;;;;;13.63;5.53;;;;;;;;;;6191827;23;20199;-88
2021/07/20 00:26:26;;;;;;;11.95;5.00;;;;;;;;;;6191901;23;20167;-86
2021/07/20 00:29:30;;;;;;;13.10;4.82;;;;;;;;;;6192286;23;20171;-88
2021/07/20 00:32:35;;;;;;;10.15;5.10;;;;;;;;;;6191724;23;20773;-86
2021/07/20 00:35:41;;;;;;;11.35;5.30;;;;;;;;;;6192053;23;20172;-85
2021/07/20 00:38:46;;;;;;;9.02;5.10;;;;;;;;;;6191224;23;20167;-85
2021/07/20 00:41:51;;;;;;;10.73;5.78;;;;;;;;;;6191492;23;20212;-85
2021/07/20 00:44:56;;;;;;;11.95;5.35;;;;;;;;;;6192569;23;20553;-86
2021/07/20 00:48:01;;;;;;;22.23;6.25;;;;;;;;;;6190999;23;20615;-85
2021/07/20 00:51:10;;;;;;;15.45;6.28;;;;;;;;;;6191540;23;20167;-84
2021/07/20 00:54:15;;;;;;;13.02;5.93;;;;;;;;;;6189887;23;20176;-86
2021/07/20 00:57:21;;;;;;;14.20;6.50;;;;;;;;;;6189641;23;20242;-86
2021/07/20 01:00:26;;;;;;;11.57;5.65;;;;;;;;;;6190841;23;20295;-87
2021/07/20 01:03:33;;;;;;;12.07;5.13;;;;;;;;;;6190033;23;20242;-86
2021/07/20 01:06:43;;;;;;;10.00;5.40;;;;;;;;;;6190602;23;20167;-87
2021/07/20 01:09:52;;;;;;;8.43;5.35;;;;;;;;;;6191792;23;20172;-87
2021/07/20 01:12:58;;;;;;;10.75;6.03;;;;;;;;;;6190176;23;20172;-84
2021/07/20 01:16:03;;;;;;;11.35;6.30;;;;;;;;;;6190835;23;20171;-85
2021/07/20 01:19:09;;;;;;;10.77;6.13;;;;;;;;;;6190632;23;20175;-86
2021/07/20 01:22:18;;;;;;;12.07;5.55;;;;;;;;;;6189702;23;20196;-86
2021/07/20 01:25:25;;;;;;;9.88;5.15;;;;;;;;;;6189464;23;20171;-86
2021/07/20 01:28:32;;;;;;;15.25;5.90;;;;;;;;;;6189551;23;20184;-87
2021/07/20 01:31:38;;;;;;;13.05;6.03;;;;;;;;;;6190277;23;20176;-87
2021/07/20 01:34:49;;;;;;;14.38;6.20;;;;;;;;;;6190192;23;20172;-86
2021/07/20 01:37:57;;;;;;;11.80;6.93;;;;;;;;;;6189873;23;20675;-86
2021/07/20 01:41:08;;;;;;;20.17;7.68;;;;;;;;;;6189719;23;20175;-86
2021/07/20 01:44:14;;;;;;;16.92;8.20;;;;;;;;;;6189586;23;20203;-86
2021/07/20 01:47:26;;;;;;;13.93;6.53;;;;;;;;;;6188928;23;20171;-87
2021/07/20 01:50:32;;;;;;;16.13;6.72;;;;;;;;;;6189957;23;20187;-87
2021/07/20 01:53:38;;;;;;;19.65;7.65;;;;;;;;;;6189069;23;20168;-87
2021/07/20 01:56:46;;;;;;;16.50;8.57;;;;;;;;;;6189098;23;20190;-88
2021/07/20 01:59:51;;;;;;;13.13;7.70;;;;;;;;;;6188400;23;20179;-88
2021/07/20 02:03:20;;;;;;;21.08;9.25;;;;;;;;;;6189629;23;20272;-86
2021/07/20 02:10:03;;;;;;;18.98;8.18;;;;;;;;;;6187397;23;20619;-86
2021/07/20 02:13:16;;;;;;;17.75;7.85;;;;;;;;;;6187681;23;20195;-87
2021/07/20 02:16:41;;;;;;;21.83;8.77;;;;;;;;;;6189588;23;20168;-88
2021/07/20 02:19:51;;;;;;;16.90;8.38;;;;;;;;;;6190222;23;20167;-88
2021/07/20 02:23:11;;;;;;;20.15;8.93;;;;;;;;;;6140144;23;1185829;-85
2021/07/20 02:26:16;;;;;;;19.30;9.10;;;;;;;;;;6191672;23;20259;-85
2021/07/20 02:29:23;;;;;;;22.23;9.35;;;;;;;;;;6191754;23;20168;-87
2021/07/20 02:32:30;;;;;;;31.38;10.20;;;;;;;;;;6191476;23;20234;-86
2021/07/20 02:35:38;;;;;;;24.42;10.07;;;;;;;;;;6191689;23;20176;-86
2021/07/20 02:38:58;;;;;;;19.45;9.23;;;;;;;;;;6190588;23;20203;-86
2021/07/20 02:42:09;;;;;;;21.92;10.10;;;;;;;;;;6191766;23;20172;-86
2021/07/20 02:45:17;;;;;;;19.88;9.85;;;;;;;;;;6192328;23;20176;-86
2021/07/20 02:48:25;;;;;;;20.08;9.50;;;;;;;;;;6194462;23;20685;-86
2021/07/20 02:51:31;;;;;;;20.63;10.50;;;;;;;;;;6193510;23;20164;-85
2021/07/20 02:54:38;;;;;;;18.38;9.77;;;;;;;;;;6192215;23;20171;-87
2021/07/20 02:57:45;;;;;;;22.02;9.98;;;;;;;;;;6192056;23;20184;-87
2021/07/20 03:00:54;;;;;;;18.77;9.43;;;;;;;;;;6191887;23;20156;-84
2021/07/20 03:03:59;;;;;;;23.15;9.68;;;;;;;;;;6193425;23;20168;-86
2021/07/20 03:07:10;;;;;;;21.40;9.85;;;;;;;;;;6192232;23;20168;-86
2021/07/20 03:10:23;;;;;;;22.30;10.10;;;;;;;;;;6193241;23;20171;-85
2021/07/20 03:13:29;;;;;;;21.08;9.77;;;;;;;;;;6193906;23;20191;-85
2021/07/20 03:16:36;;;;;;;19.67;9.68;;;;;;;;;;6194251;23;20188;-85
2021/07/20 03:19:42;;;;;;;25.33;10.65;;;;;;;;;;6192260;23;20172;-85
2021/07/20 03:22:51;;;;;;;20.45;10.60;;;;;;;;;;6191872;23;20203;-85
2021/07/20 03:25:58;;;;;;;19.67;10.25;;;;;;;;;;6193927;23;20778;-87
2021/07/20 03:29:05;;;;;;;24.15;10.18;;;;;;;;;;6192575;23;20163;-85
2021/07/20 03:32:13;;;;;;;23.08;10.00;;;;;;;;;;6192445;23;20679;-85
2021/07/20 03:35:19;;;;;;;18.65;10.38;;;;;;;;;;6191865;23;20207;-87
2021/07/20 03:38:25;;;;;;;27.70;11.45;;;;;;;;;;6192114;23;20172;-86
2021/07/20 03:41:38;;;;;;;20.48;10.05;;;;;;;;;;6193098;23;20199;-86
2021/07/20 03:44:44;;;;;;;21.05;9.70;;;;;;;;;;6193799;23;20685;-86
2021/07/20 03:47:53;;;;;;;18.83;9.18;;;;;;;;;;6192748;23;20187;-85
2021/07/20 03:51:12;;;;;;;21.15;10.32;;;;;;;;;;6192582;23;20179;-85
2021/07/20 03:54:18;;;;;;;24.15;10.25;;;;;;;;;;6192068;23;20531;-87
2021/07/20 03:57:24;;;;;;;21.40;10.25;;;;;;;;;;6191888;23;20191;-85
2021/07/20 04:00:31;;;;;;;20.33;10.43;;;;;;;;;;6192000;23;20500;-85
2021/07/20 04:03:40;;;;;;;21.27;11.02;;;;;;;;;;6193506;23;20238;-86
2021/07/20 04:06:46;;;;;;;21.83;10.68;;;;;;;;;;6194422;23;20622;-86
2021/07/20 04:10:08;;;;;;;20.15;10.18;;;;;;;;;;6192774;23;20220;-87
2021/07/20 04:13:33;;;;;;;22.05;10.65;;;;;;;;;;6193904;23;20219;-87
2021/07/20 04:16:48;;;;;;;21.88;10.88;;;;;;;;;;6192269;23;20614;-85
2021/07/20 04:19:54;;;;;;;21.85;9.45;;;;;;;;;;6192658;23;20167;-86
2021/07/20 04:23:04;;;;;;;23.17;10.23;;;;;;;;;;6192286;23;20203;-87
2021/07/20 04:26:18;;;;;;;19.75;10.23;;;;;;;;;;6191254;23;20175;-87
2021/07/20 04:29:24;;;;;;;25.58;10.52;;;;;;;;;;6192179;23;20176;-86
2021/07/20 04:32:30;;;;;;;24.58;10.27;;;;;;;;;;6192000;23;20626;-86
2021/07/20 04:35:40;;;;;;;18.17;9.80;;;;;;;;;;6193178;23;20176;-87
2021/07/20 04:38:47;;;;;;;21.40;9.80;;;;;;;;;;6192385;23;20247;-86
2021/07/20 04:41:53;;;;;;;20.77;9.35;;;;;;;;;;6192960;23;20180;-86
2021/07/20 04:44:59;;;;;;;21.60;9.35;;;;;;;;;;6193561;23;20658;-87
2021/07/20 04:48:13;;;;;;;20.02;9.27;;;;;;;;;;6193487;23;20510;-87
2021/07/20 04:51:26;;;;;;;22.42;9.38;;;;;;;;;;6194343;23;20176;-87
2021/07/20 04:54:31;;;;;;;19.88;9.70;;;;;;;;;;6193755;23;20199;-88
2021/07/20 04:57:39;;;;;;;23.55;9.90;;;;;;;;;;6193093;23;20168;-86
2021/07/20 05:00:46;;;;;;;20.08;9.65;;;;;;;;;;6194426;23;20176;-86
2021/07/20 05:03:52;;;;;;;15.23;8.63;;;;;;;;;;6195132;23;20216;-85
2021/07/20 05:07:04;;;;;;;17.90;9.95;;;;;;;;;;6191943;23;20809;-86
2021/07/20 05:10:13;;;;;;;23.58;10.25;;;;;;;;;;6194401;23;20626;-85
2021/07/20 05:13:38;;;;;;;17.13;8.90;;;;;;;;;;6195035;23;20211;-85
2021/07/20 05:16:44;;;;;;;20.17;9.70;;;;;;;;;;6196157;23;20179;-87
2021/07/20 05:19:49;;;;;;;20.48;9.52;;;;;;;;;;6196292;23;20172;-86
2021/07/20 05:23:01;;;;;;;21.58;9.50;;;;;;;;;;6196495;23;20191;-86
2021/07/20 05:26:07;;;;;;;19.58;9.18;;;;;;;;;;6195150;23;20187;-87
2021/07/20 05:29:16;;;;;;;19.27;10.43;;;;;;;;;;6193728;23;20167;-84
2021/07/20 05:32:29;;;;;;;19.42;9.75;;;;;;;;;;6194310;23;20501;-86
2021/07/20 05:35:36;;;;;;;16.35;9.23;;;;;;;;;;6194031;23;20232;-87
2021/07/20 05:38:44;;;;;;;19.80;9.15;;;;;;;;;;6193834;23;20168;-87
2021/07/20 05:42:17;;;;;;;17.60;9.30;;;;;;;;;;6193658;23;20215;-88
2021/07/20 05:45:23;;;;;;;22.38;8.90;;;;;;;;;;6193852;23;20164;-88
2021/07/20 05:48:33;;;;;;;18.80;9.40;;;;;;;;;;6192752;23;20175;-87
2021/07/20 05:51:42;;;;;;;17.45;8.93;;;;;;;;;;6192192;23;20171;-88
2021/07/20 05:54:52;;;;;;;20.20;8.57;;;;;;;;;;6194411;23;20200;-86
2021/07/20 05:58:08;;;;;;;19.75;8.95;;;;;;;;;;6191327;23;20168;-88
2021/07/20 06:01:14;;;;;;;15.02;8.68;;;;;;;;;;6192270;23;20176;-86
2021/07/20 06:04:20;;;;;;;18.95;9.68;;;;;;;;;;6194096;23;20172;-87
2021/07/20 06:07:25;;;;;;;17.00;8.27;;;;;;;;;;6194478;23;20246;-86
2021/07/20 06:10:33;;;;;;;19.38;8.80;;;;;;;;;;6194353;23;20176;-87
2021/07/20 06:13:40;;;;;;;14.15;7.38;;;;;;;;;;6197022;23;20199;-87
2021/07/20 06:16:45;;;;;;;14.63;7.63;;;;;;;;;;6193761;23;20661;-87
2021/07/20 06:19:50;;;;;;;20.50;8.05;;;;;;;;;;6197086;23;20175;-87
2021/07/20 06:22:57;;;;;;;17.67;7.70;;;;;;;;;;6197587;23;20199;-87
2021/07/20 06:26:08;;;;;;;15.23;7.90;;;;;;;;;;6199066;23;20171;-86
2021/07/20 06:29:14;;;;;;;15.30;7.30;;;;;;;;;;6200851;23;20182;-88
2021/07/20 06:32:19;;;;;;;13.57;7.03;;;;;;;;;;6197350;23;20513;-87
2021/07/20 06:35:24;;;;;;;15.20;7.10;;;;;;;;;;6199412;23;20216;-88
2021/07/20 06:41:51;;;;;;;17.42;7.25;;;;;;;;;;6200073;23;20175;-87
2021/07/20 06:44:56;;;;;;;13.57;6.78;;;;;;;;;;6198868;23;20240;-87
2021/07/20 06:48:02;;;;;;;13.82;7.53;;;;;;;;;;6198332;23;20175;-88
2021/07/20 06:51:07;;;;;;;15.90;7.40;;;;;;;;;;6199870;23;20245;-86
2021/07/20 06:54:15;;;;;;;18.20;6.75;;;;;;;;;;6197520;23;20615;-86
2021/07/20 06:57:22;;;;;;;16.27;6.95;;;;;;;;;;6198194;23;20266;-87
2021/07/20 07:00:30;;;;;;;17.88;7.03;;;;;;;;;;6197553;23;20195;-88
2021/07/20 07:03:39;;;;;;;19.38;7.00;;;;;;;;;;6197335;23;20168;-88
2021/07/20 07:06:45;;;;;;;14.40;6.90;;;;;;;;;;6198671;23;20172;-88
2021/07/20 07:09:51;;;;;;;14.85;6.88;;;;;;;;;;6195971;23;20167;-88
2021/07/20 07:12:59;;;;;;;17.08;6.78;;;;;;;;;;6194662;23;20227;-87
2021/07/20 07:16:05;;;;;;;17.95;7.18;;;;;;;;;;6195273;23;20168;-87
2021/07/20 07:19:10;;;;;;;17.58;6.82;;;;;;;;;;6193985;23;20180;-87
2021/07/20 07:22:16;;;;;;;12.73;6.28;;;;;;;;;;6195657;23;20167;-88
2021/07/20 07:25:21;;;;;;;15.15;6.55;;;;;;;;;;6195788;23;20168;-88
2021/07/20 07:28:28;;;;;;;24.08;12.02;;;;;;;;;;6198231;23;20462;-86
2021/07/20 07:31:33;;;;;;;13.48;6.35;;;;;;;;;;6196690;23;20630;-86
2021/07/20 07:34:38;;;;;;;21.17;6.30;;;;;;;;;;6198007;23;20259;-86
2021/07/20 07:37:45;;;;;;;13.27;6.13;;;;;;;;;;6196889;23;20288;-88
2021/07/20 07:40:53;;;;;;;16.58;7.05;;;;;;;;;;6197102;23;20718;-86
2021/07/20 07:44:00;;;;;;;12.75;6.07;;;;;;;;;;6199245;23;20299;-88
2021/07/20 07:47:06;;;;;;;12.15;6.00;;;;;;;;;;6194998;23;20238;-88
2021/07/20 07:50:12;;;;;;;13.45;5.55;;;;;;;;;;6196147;23;20168;-86
2021/07/20 07:53:17;;;;;;;14.88;6.03;;;;;;;;;;6194803;23;20168;-87
2021/07/20 07:56:22;;;;;;;15.52;6.55;;;;;;;;;;6196485;23;20183;-87
2021/07/20 07:59:30;;;;;;;12.27;5.82;;;;;;;;;;6193238;23;20259;-87
2021/07/20 08:02:36;;;;;;;16.27;5.78;;;;;;;;;;6199957;23;20251;-88
2021/07/20 08:05:46;;;;;;;13.50;5.78;;;;;;;;;;6199393;23;20199;-88
2021/07/20 08:08:53;;;;;;;11.80;5.90;;;;;;;;;;6198302;23;20267;-90
2021/07/20 08:12:00;;;;;;;20.30;6.60;;;;;;;;;;6197122;23;20168;-87
2021/07/20 08:15:07;;;;;;;14.23;6.07;;;;;;;;;;6195739;23;20247;-87
2021/07/20 08:18:13;;;;;;;14.00;5.85;;;;;;;;;;6194256;23;20168;-87
2021/07/20 08:21:20;;;;;;;13.60;6.10;;;;;;;;;;6192545;23;20674;-85
2021/07/20 08:24:25;;;;;;;10.38;5.47;;;;;;;;;;6196165;23;20192;-87
2021/07/20 08:27:32;;;;;;;11.27;5.50;;;;;;;;;;6194346;23;20172;-88
2021/07/20 08:30:42;;;;;;;13.43;5.45;;;;;;;;;;6192325;23;20175;-88
2021/07/20 08:33:49;;;;;;;12.88;6.32;;;;;;;;;;6193578;23;20191;-88
2021/07/20 08:36:56;;;;;;;13.77;6.00;;;;;;;;;;6193435;23;20677;-88
2021/07/20 08:40:02;;;;;;;12.05;5.45;;;;;;;;;;6194600;23;20240;-88
2021/07/20 08:43:13;;;;;;;14.50;6.20;;;;;;;;;;6194730;23;20264;-89
2021/07/20 08:46:28;;;;;;;13.57;6.05;;;;;;;;;;6193277;23;20174;-87
2021/07/20 08:49:50;;;;;;;18.48;5.82;;;;;;;;;;6194592;23;20172;-87
2021/07/20 08:53:06;;;;;;;10.05;5.05;;;;;;;;;;6194402;23;20183;-88
2021/07/20 08:56:13;;;;;;;15.00;5.45;;;;;;;;;;6194896;23;20311;-88
2021/07/20 08:59:20;;;;;;;12.52;5.43;;;;;;;;;;6196082;23;20249;-88
2021/07/20 09:02:32;;;;;;;10.68;5.45;;;;;;;;;;6195023;23;20175;-88
2021/07/20 09:05:40;;;;;;;9.60;5.13;;;;;;;;;;6195107;23;20175;-89
2021/07/20 09:08:48;;;;;;;8.07;4.60;;;;;;;;;;6192745;23;20195;-89
2021/07/20 09:11:55;;;;;;;13.45;5.13;;;;;;;;;;6191731;23;20178;-89
2021/07/20 09:15:03;;;;;;;11.18;5.85;;;;;;;;;;6192857;23;20195;-89
2021/07/20 09:18:18;;;;;;;12.27;5.57;;;;;;;;;;6192048;23;20199;-88
2021/07/20 09:21:24;;;;;;;13.30;6.05;;;;;;;;;;6192472;23;20183;-87
2021/07/20 09:24:31;;;;;;;10.20;5.10;;;;;;;;;;6192000;23;20211;-88
2021/07/20 09:27:38;;;;;;;15.05;5.60;;;;;;;;;;6193225;23;20202;-88
2021/07/20 09:30:46;;;;;;;9.13;5.15;;;;;;;;;;6192119;23;20170;-87
2021/07/20 09:33:58;;;;;;;11.80;5.40;;;;;;;;;;6193837;23;20211;-88
2021/07/20 09:37:06;;;;;;;13.27;5.93;;;;;;;;;;6194780;23;20183;-88
2021/07/20 09:40:25;;;;;;;11.88;5.75;;;;;;;;;;6192744;23;20510;-86
2021/07/20 09:43:50;;;;;;;10.50;5.30;;;;;;;;;;6192681;23;20222;-88
2021/07/20 09:47:06;;;;;;;12.57;5.57;;;;;;;;;;6193711;23;20175;-88
2021/07/20 09:50:15;;;;;;;15.73;6.60;;;;;;;;;;6192925;23;20310;-86
2021/07/20 09:53:34;;;;;;;13.07;5.82;;;;;;;;;;6192498;23;20741;-88
2021/07/20 09:56:51;;;;;;;14.50;5.97;;;;;;;;;;6191423;23;20176;-88
2021/07/20 10:00:03;;;;;;;10.73;5.57;;;;;;;;;;6192716;23;20260;-89
2021/07/20 10:03:14;;;;;;;12.10;5.95;;;;;;;;;;6193158;23;20579;-86
2021/07/20 10:06:28;;;;;;;13.68;6.15;;;;;;;;;;6194113;23;20175;-87
2021/07/20 10:09:38;;;;;;;13.20;6.15;;;;;;;;;;6193211;23;20174;-89
2021/07/20 10:12:46;;;;;;;12.68;6.53;;;;;;;;;;6191497;23;20503;-88
2021/07/20 10:15:54;;;;;;;12.93;6.18;;;;;;;;;;6193219;23;20280;-89
2021/07/20 10:19:00;;;;;;;13.93;5.75;;;;;;;;;;6188656;23;20221;-89
2021/07/20 10:22:11;;;;;;;10.73;6.28;;;;;;;;;;6189767;23;20179;-88
2021/07/20 10:25:18;;;;;;;13.65;6.30;;;;;;;;;;6191389;23;20610;-88
2021/07/20 10:28:28;;;;;;;10.13;5.95;;;;;;;;;;6189712;23;20246;-89
2021/07/20 10:31:38;;;;;;;11.50;6.05;;;;;;;;;;6189191;23;20175;-89
2021/07/20 10:34:47;;;;;;;12.80;6.38;;;;;;;;;;6192610;23;20179;-87
2021/07/20 10:37:55;;;;;;;13.50;6.75;;;;;;;;;;6191060;23;20255;-88
2021/07/20 10:41:01;;;;;;;14.13;7.80;;;;;;;;;;6193477;23;20174;-89
2021/07/20 10:44:44;;;;;;;13.13;6.47;;;;;;;;;;6191975;23;20187;-88
2021/07/20 10:47:52;;;;;;;12.68;6.10;;;;;;;;;;6192680;23;20176;-86
2021/07/20 10:50:58;;;;;;;11.07;6.05;;;;;;;;;;6191571;23;20599;-87
2021/07/20 10:54:09;;;;;;;11.85;6.22;;;;;;;;;;6191440;23;20171;-87
2021/07/20 10:57:18;;;;;;;11.65;6.18;;;;;;;;;;6193077;23;20171;-88
2021/07/20 11:00:24;;;;;;;11.00;6.25;;;;;;;;;;6190516;23;20171;-88
2021/07/20 11:03:33;;;;;;;12.23;6.28;;;;;;;;;;6192624;23;20171;-89
2021/07/20 11:06:41;;;;;;;18.67;7.20;;;;;;;;;;6192275;23;20178;-89
2021/07/20 11:09:47;;;;;;;10.20;7.07;;;;;;;;;;6194902;23;20178;-87
2021/07/20 11:12:55;;;;;;;14.43;7.13;;;;;;;;;;6194505;23;20235;-88
2021/07/20 11:16:02;;;;;;;17.48;7.55;;;;;;;;;;6193420;23;20163;-89
2021/07/20 11:19:08;;;;;;;10.93;6.38;;;;;;;;;;6194065;23;20171;-88
2021/07/20 11:22:13;;;;;;;11.88;6.18;;;;;;;;;;6195468;23;20172;-87
2021/07/20 11:25:20;;;;;;;13.55;6.82;;;;;;;;;;6192837;23;20195;-88
2021/07/20 11:28:26;;;;;;;12.15;7.85;;;;;;;;;;6193771;23;20183;-86
2021/07/20 11:31:34;;;;;;;11.55;7.20;;;;;;;;;;6195511;23;20171;-90
2021/07/20 11:34:42;;;;;;;15.15;8.07;;;;;;;;;;6191838;23;20179;-88
2021/07/20 11:37:49;;;;;;;12.43;7.35;;;;;;;;;;6192618;23;20171;-89
2021/07/20 11:41:06;;;;;;;15.55;7.93;;;;;;;;;;6193660;23;20179;-88
2021/07/20 11:44:15;;;;;;;14.88;7.75;;;;;;;;;;6192916;23;20630;-89
2021/07/20 11:47:22;;;;;;;15.15;8.15;;;;;;;;;;6193265;23;20226;-88
2021/07/20 11:50:32;;;;;;;16.98;8.52;;;;;;;;;;6194836;23;20167;-88
2021/07/20 11:53:40;;;;;;;14.65;8.77;;;;;;;;;;6194275;23;20195;-87
2021/07/20 11:56:52;;;;;;;18.08;9.02;;;;;;;;;;6195340;23;20167;-89
2021/07/20 12:00:09;;;;;;;20.05;9.60;;;;;;;;;;6196140;23;20171;-88
2021/07/20 12:03:21;;;;;;;18.55;10.30;;;;;;;;;;6193916;23;20322;-90
2021/07/20 12:06:34;;;;;;;16.58;9.25;;;;;;;;;;6193559;23;20561;-88
2021/07/20 12:09:47;;;;;;;17.33;9.15;;;;;;;;;;6195228;23;20179;-88
2021/07/20 12:12:54;;;;;;;17.42;9.60;;;;;;;;;;6195849;23;20175;-87
2021/07/20 12:16:00;;;;;;;17.45;10.60;;;;;;;;;;6194353;23;20229;-89
2021/07/20 12:19:04;;;;;;;18.17;11.15;;;;;;;;;;6192337;23;20257;-88
2021/07/20 12:22:11;;;;;;;18.85;10.55;;;;;;;;;;6192067;23;20175;-88
2021/07/20 12:25:17;;;;;;;17.58;10.10;;;;;;;;;;6192505;23;20254;-88
2021/07/20 12:28:24;;;;;;;16.63;10.45;;;;;;;;;;6192569;23;20171;-89
2021/07/20 12:31:32;;;;;;;18.70;12.18;;;;;;;;;;6191223;23;20471;-88
2021/07/20 12:34:38;;;;;;;17.95;10.63;;;;;;;;;;6192794;23;20682;-89
2021/07/20 12:37:47;;;;;;;17.67;10.45;;;;;;;;;;6192971;23;20174;-88
2021/07/20 12:40:52;;;;;;;19.50;10.15;;;;;;;;;;6191675;23;20279;-89
2021/07/20 12:43:59;;;;;;;21.33;10.60;;;;;;;;;;6191597;23;20248;-87
2021/07/20 12:47:08;;;;;;;15.95;10.07;;;;;;;;;;6191137;23;20163;-90
2021/07/20 12:50:15;;;;;;;15.00;9.48;;;;;;;;;;6192888;23;20175;-86
2021/07/20 12:53:21;;;;;;;16.60;10.00;;;;;;;;;;6192963;23;20706;-89
2021/07/20 12:56:27;;;;;;;17.50;10.00;;;;;;;;;;6192281;23;20163;-88
2021/07/20 12:59:36;;;;;;;18.63;10.35;;;;;;;;;;6192688;23;20218;-88
2021/07/20 13:02:41;;;;;;;15.73;10.20;;;;;;;;;;6192079;23;20179;-87
2021/07/20 13:05:49;;;;;;;20.10;10.30;;;;;;;;;;6193491;23;20192;-88
2021/07/20 13:08:54;;;;;;;16.13;9.30;;;;;;;;;;6192893;23;20211;-89
2021/07/20 13:11:59;;;;;;;17.92;9.73;;;;;;;;;;6194958;23;20180;-89
2021/07/20 13:15:13;;;;;;;16.80;9.82;;;;;;;;;;6193497;23;20163;-89
2021/07/20 13:18:23;;;;;;;15.48;9.55;;;;;;;;;;6191932;23;20214;-89
2021/07/20 13:21:28;;;;;;;17.48;9.30;;;;;;;;;;6192326;23;20596;-89
2021/07/20 13:24:33;;;;;;;15.82;9.05;;;;;;;;;;6192922;23;20863;-87
2021/07/20 13:27:39;;;;;;;17.30;9.60;;;;;;;;;;6193738;23;20199;-88
2021/07/20 13:30:45;;;;;;;18.02;9.80;;;;;;;;;;6191648;23;20212;-87
2021/07/20 13:33:51;;;;;;;17.58;9.75;;;;;;;;;;6191479;23;20175;-86
2021/07/20 13:36:56;;;;;;;15.32;9.07;;;;;;;;;;6202222;23;20219;-89
2021/07/20 13:40:01;;;;;;;15.88;9.18;;;;;;;;;;6192780;23;20174;-88
2021/07/20 13:43:08;;;;;;;13.77;8.63;;;;;;;;;;6193051;23;20166;-87
2021/07/20 13:46:20;;;;;;;13.82;9.25;;;;;;;;;;6193019;23;20195;-89
2021/07/20 13:49:27;;;;;;;13.75;8.25;;;;;;;;;;6197496;23;20155;-87
2021/07/20 13:52:32;;;;;;;12.52;7.53;;;;;;;;;;6197056;23;20230;-87
2021/07/20 13:55:42;;;;;;;13.02;7.75;;;;;;;;;;6193960;23;20168;-87
2021/07/20 13:58:52;;;;;;;12.85;8.10;;;;;;;;;;6192730;23;20195;-88
2021/07/20 14:01:59;;;;;;;11.93;7.40;;;;;;;;;;6193161;23;20167;-89
2021/07/20 14:05:05;;;;;;;11.35;7.68;;;;;;;;;;6194892;23;20167;-88
2021/07/20 14:08:11;;;;;;;13.10;7.93;;;;;;;;;;6195214;23;20175;-88
2021/07/20 14:11:17;;;;;;;12.95;8.10;;;;;;;;;;6193292;23;20171;-88
2021/07/20 14:14:23;;;;;;;14.80;8.10;;;;;;;;;;6193598;23;20171;-87
2021/07/20 14:17:31;;;;;;;16.13;9.07;;;;;;;;;;6192383;23;20202;-88
2021/07/20 14:20:37;;;;;;;12.77;7.43;;;;;;;;;;6193964;23;20175;-86
2021/07/20 14:23:43;;;;;;;15.88;7.45;;;;;;;;;;6194186;23;20287;-88
2021/07/20 14:26:49;;;;;;;12.60;7.53;;;;;;;;;;6194217;23;20273;-87
2021/07/20 14:29:55;;;;;;;11.60;7.25;;;;;;;;;;6196178;23;20168;-89
2021/07/20 14:33:03;;;;;;;14.43;7.28;;;;;;;;;;6193693;23;20202;-87
2021/07/20 14:36:10;;;;;;;12.05;6.85;;;;;;;;;;6193331;23;20167;-88
2021/07/20 14:39:32;;;;;;;14.82;7.30;;;;;;;;;;6195777;23;20646;-87
2021/07/20 14:42:37;;;;;;;16.77;7.70;;;;;;;;;;6196421;23;20175;-87
2021/07/20 14:45:42;;;;;;;12.85;7.63;;;;;;;;;;6195796;23;20519;-89
2021/07/20 14:48:49;;;;;;;11.70;7.45;;;;;;;;;;6196318;23;20175;-88
2021/07/20 14:51:54;;;;;;;13.57;7.32;;;;;;;;;;6196390;23;20171;-88
2021/07/20 14:58:33;;;;;;;11.85;7.25;;;;;;;;;;6197334;23;20171;-87
2021/07/20 15:01:41;;;;;;;14.07;7.22;;;;;;;;;;6195633;23;20246;-87
2021/07/20 15:04:48;;;;;;;15.20;7.45;;;;;;;;;;6197370;23;20167;-88
2021/07/20 15:08:07;;;;;;;13.25;8.05;;;;;;;;;;6199905;23;20203;-87
2021/07/20 15:11:27;;;;;;;12.63;7.07;;;;;;;;;;6198543;23;20508;-88
2021/07/20 15:14:34;;;;;;;14.40;7.82;;;;;;;;;;6197976;23;20175;-89
2021/07/20 15:17:39;;;;;;;16.88;8.55;;;;;;;;;;6199826;23;20187;-87
2021/07/20 15:20:45;;;;;;;15.55;8.57;;;;;;;;;;6197927;23;20172;-86
2021/07/20 15:23:57;;;;;;;16.63;8.77;;;;;;;;;;6201640;23;20191;-90
2021/07/20 15:27:05;;;;;;;17.48;8.60;;;;;;;;;;6199217;23;20300;-88
2021/07/20 15:30:15;;;;;;;16.05;8.15;;;;;;;;;;6198597;23;20167;-87
2021/07/20 15:33:21;;;;;;;11.95;7.47;;;;;;;;;;6197093;23;20254;-87
2021/07/20 15:36:28;;;;;;;12.80;7.78;;;;;;;;;;6196402;23;20164;-89
2021/07/20 15:39:43;;;;;;;14.40;8.05;;;;;;;;;;6197402;23;20164;-86
2021/07/20 15:42:52;;;;;;;14.45;7.95;;;;;;;;;;6198823;23;20160;-88
2021/07/20 15:46:00;;;;;;;17.27;7.80;;;;;;;;;;6196908;23;20247;-87
2021/07/20 15:52:27;;;;;;;17.50;7.90;;;;;;;;;;6196494;23;20172;-88
2021/07/20 15:55:33;;;;;;;16.75;7.65;;;;;;;;;;6195928;23;20627;-87
2021/07/20 15:58:40;;;;;;;16.95;8.45;;;;;;;;;;6195728;23;20179;-84
2021/07/20 16:01:45;;;;;;;14.88;7.45;;;;;;;;;;6195214;23;20172;-87
2021/07/20 16:04:50;;;;;;;11.77;6.93;;;;;;;;;;6195124;23;20287;-88
2021/07/20 16:07:57;;;;;;;15.52;7.38;;;;;;;;;;6195582;23;20179;-88
2021/07/20 16:11:03;;;;;;;15.77;8.02;;;;;;;;;;6198987;23;20238;-87
2021/07/20 16:14:09;;;;;;;14.50;8.07;;;;;;;;;;6193733;23;20229;-88
2021/07/20 16:17:18;;;;;;;22.70;8.52;;;;;;;;;;6195073;23;20168;-89
2021/07/20 16:20:24;;;;;;;16.40;8.60;;;;;;;;;;6192997;23;20218;-88
2021/07/20 16:23:32;;;;;;;17.88;8.00;;;;;;;;;;6193687;23;20182;-86
2021/07/20 16:26:37;;;;;;;16.02;9.02;;;;;;;;;;6194439;23;20629;-86
2021/07/20 16:29:42;;;;;;;18.08;9.18;;;;;;;;;;6175706;23;20631;-87
2021/07/20 16:32:48;;;;;;;17.83;8.60;;;;;;;;;;6195504;23;20160;-88
2021/07/20 16:35:55;;;;;;;19.73;9.43;;;;;;;;;;6196955;23;20554;-88
2021/07/20 16:39:05;;;;;;;15.35;8.27;;;;;;;;;;6194964;23;20175;-89
2021/07/20 16:42:10;;;;;;;18.33;8.35;;;;;;;;;;6194696;23;20164;-88
2021/07/20 16:45:16;;;;;;;13.77;7.63;;;;;;;;;;6195192;23;20270;-87
2021/07/20 16:48:23;;;;;;;15.23;8.27;;;;;;;;;;6196667;23;20187;-87
2021/07/20 16:51:33;;;;;;;14.90;8.02;;;;;;;;;;6194208;23;20259;-87
2021/07/20 16:54:43;;;;;;;17.55;8.35;;;;;;;;;;6194838;23;20206;-87
2021/07/20 16:57:49;;;;;;;18.58;8.40;;;;;;;;;;6195040;23;20167;-87
2021/07/20 17:00:54;;;;;;;16.27;8.60;;;;;;;;;;6197202;23;20172;-87
2021/07/20 17:03:59;;;;;;;15.95;8.38;;;;;;;;;;6197298;23;20668;-86
2021/07/20 17:07:09;;;;;;;16.90;8.38;;;;;;;;;;6195429;23;20195;-88
2021/07/20 17:10:16;;;;;;;15.35;8.27;;;;;;;;;;6192801;23;20172;-89
2021/07/20 17:13:23;;;;;;;15.63;8.45;;;;;;;;;;6194531;23;20175;-85
2021/07/20 17:16:30;;;;;;;15.32;8.00;;;;;;;;;;6196904;23;20168;-88
2021/07/20 17:19:35;;;;;;;13.95;7.72;;;;;;;;;;6195094;23;20675;-86
2021/07/20 17:22:40;;;;;;;16.88;7.80;;;;;;;;;;6196369;23;20319;-87
2021/07/20 17:25:47;;;;;;;17.38;8.65;;;;;;;;;;6193749;23;20302;-86
2021/07/20 17:28:55;;;;;;;17.65;9.40;;;;;;;;;;6194701;23;20179;-87
2021/07/20 17:32:00;;;;;;;14.45;7.95;;;;;;;;;;6193458;23;20176;-88
2021/07/20 17:35:08;;;;;;;16.90;7.93;;;;;;;;;;6194729;23;20168;-86
2021/07/20 17:38:23;;;;;;;16.42;9.18;;;;;;;;;;6193529;23;20213;-87
2021/07/20 17:41:42;;;;;;;14.63;7.78;;;;;;;;;;6193782;23;20176;-85
2021/07/20 17:44:50;;;;;;;17.55;8.25;;;;;;;;;;6192872;23;20168;-87
2021/07/20 17:47:59;;;;;;;19.58;7.95;;;;;;;;;;6193260;23;20199;-86
2021/07/20 17:51:07;;;;;;;15.55;7.97;;;;;;;;;;6194635;23;20168;-86
2021/07/20 17:54:14;;;;;;;16.08;7.72;;;;;;;;;;6193741;23;20216;-86
2021/07/20 17:57:20;;;;;;;15.95;7.60;;;;;;;;;;6193353;23;20175;-86
2021/07/20 18:00:31;;;;;;;14.90;8.43;;;;;;;;;;6195282;23;20172;-89
2021/07/20 18:03:36;;;;;;;16.02;8.32;;;;;;;;;;6195137;23;20507;-87
2021/07/20 18:06:42;;;;;;;20.75;9.68;;;;;;;;;;6195420;23;20267;-88
2021/07/20 18:09:52;;;;;;;23.58;9.00;;;;;;;;;;6195302;23;20618;-89
2021/07/20 22:02:31;;;;;;;23.27;10.27;;;;;;;;;;6223723;22;1305938;-87
2021/07/20 22:05:38;;;;;;;18.63;9.90;;;;;;;;;;6269428;22;20169;-88
2021/07/20 22:08:43;;;;;;;21.83;9.88;;;;;;;;;;6269330;22;20601;-87
2021/07/20 22:11:48;;;;;;;21.60;9.90;;;;;;;;;;6290871;22;20165;-88
2021/07/20 22:14:54;;;;;;;24.23;9.80;;;;;;;;;;6269886;22;20197;-89
2021/07/20 22:17:59;;;;;;;19.08;10.40;;;;;;;;;;6269980;22;20177;-87
2021/07/20 22:21:06;;;;;;;22.52;10.48;;;;;;;;;;6273932;22;20731;-87
2021/07/20 22:24:14;;;;;;;19.58;10.30;;;;;;;;;;6273400;22;20153;-87
2021/07/20 22:27:21;;;;;;;22.92;11.32;;;;;;;;;;6291508;22;20518;-85
2021/07/20 22:30:27;;;;;;;22.17;10.68;;;;;;;;;;6272337;22;20162;-86
2021/07/20 22:33:32;;;;;;;22.17;10.75;;;;;;;;;;6273225;22;20174;-86